sensor_id;sensor_type;location;lat;lon;timestamp;temperature;humidity
13589;DHT22;6865;52.552;13.434;2024-02-21T00:00:11;8.40;99.90
13589;DHT22;6865;52.552;13.434;2024-02-21T00:02:38;8.40;99.90
13589;DHT22;6865;52.552;13.434;2024-02-21T00:05:05;8.40;99.90
13589;DHT22;6865;52.552;13.434;2024-02-21T00:07:31;8.40;99.90
13589;DHT22;6865;52.552;13.434;2024-02-21T00:09:58;8.40;99.90
13589;DHT22;6865;52.552;13.434;2024-02-21T00:12:25;8.40;99.90
13589;DHT22;6865;52.552;13.434;2024-02-21T00:14:51;8.30;99.90
13589;DHT22;6865;52.552;13.434;2024-02-21T00:17:18;8.30;99.90
13589;DHT22;6865;52.552;13.434;2024-02-21T00:19:45;8.40;99.90
13589;DHT22;6865;52.552;13.434;2024-02-21T00:22:11;8.30;99.90
13589;DHT22;6865;52.552;13.434;2024-02-21T00:24:38;8.30;99.90
13589;DHT22;6865;52.552;13.434;2024-02-21T00:27:05;8.30;99.90
13589;DHT22;6865;52.552;13.434;2024-02-21T00:29:32;8.30;99.90
13589;DHT22;6865;52.552;13.434;2024-02-21T00:31:58;8.30;99.90
13589;DHT22;6865;52.552;13.434;2024-02-21T00:34:26;8.30;99.90
13589;DHT22;6865;52.552;13.434;2024-02-21T00:36:53;8.30;99.90
13589;DHT22;6865;52.552;13.434;2024-02-21T00:39:20;8.30;99.90
13589;DHT22;6865;52.552;13.434;2024-02-21T00:41:47;8.30;99.90
13589;DHT22;6865;52.552;13.434;2024-02-21T00:44:13;8.20;99.90
13589;DHT22;6865;52.552;13.434;2024-02-21T00:46:40;8.30;99.90
13589;DHT22;6865;52.552;13.434;2024-02-21T00:49:07;8.30;99.90
13589;DHT22;6865;52.552;13.434;2024-02-21T00:51:34;8.30;99.90
13589;DHT22;6865;52.552;13.434;2024-02-21T00:54:01;8.30;99.90
13589;DHT22;6865;52.552;13.434;2024-02-21T00:56:28;8.20;99.90
13589;DHT22;6865;52.552;13.434;2024-02-21T00:58:56;7.80;99.90
13589;DHT22;6865;52.552;13.434;2024-02-21T01:01:24;8.10;99.90
13589;DHT22;6865;52.552;13.434;2024-02-21T01:03:51;8.20;99.90
13589;DHT22;6865;52.552;13.434;2024-02-21T01:06:21;8.10;99.90
13589;DHT22;6865;52.552;13.434;2024-02-21T01:08:48;8.10;99.90
13589;DHT22;6865;52.552;13.434;2024-02-21T01:11:16;8.20;99.90
13589;DHT22;6865;52.552;13.434;2024-02-21T01:13:42;8.10;99.90
13589;DHT22;6865;52.552;13.434;2024-02-21T01:16:09;8.10;99.90
13589;DHT22;6865;52.552;13.434;2024-02-21T01:18:39;8.10;99.90
13589;DHT22;6865;52.552;13.434;2024-02-21T01:21:07;8.10;99.90
13589;DHT22;6865;52.552;13.434;2024-02-21T01:23:34;8.20;99.90
13589;DHT22;6865;52.552;13.434;2024-02-21T01:26:05;8.10;99.90
13589;DHT22;6865;52.552;13.434;2024-02-21T01:28:34;8.20;99.90
13589;DHT22;6865;52.552;13.434;2024-02-21T01:31:02;8.10;99.90
13589;DHT22;6865;52.552;13.434;2024-02-21T01:33:29;8.20;99.90
13589;DHT22;6865;52.552;13.434;2024-02-21T01:36:02;8.20;99.90
13589;DHT22;6865;52.552;13.434;2024-02-21T01:38:29;8.20;99.90
13589;DHT22;6865;52.552;13.434;2024-02-21T01:40:56;8.20;99.90
13589;DHT22;6865;52.552;13.434;2024-02-21T01:43:23;8.20;99.90
13589;DHT22;6865;52.552;13.434;2024-02-21T01:45:51;8.20;99.90
13589;DHT22;6865;52.552;13.434;2024-02-21T01:48:19;8.20;99.90
13589;DHT22;6865;52.552;13.434;2024-02-21T01:50:46;8.20;99.90
13589;DHT22;6865;52.552;13.434;2024-02-21T01:53:23;8.30;99.90
13589;DHT22;6865;52.552;13.434;2024-02-21T01:55:51;8.30;99.90
13589;DHT22;6865;52.552;13.434;2024-02-21T01:58:18;8.20;99.90
13589;DHT22;6865;52.552;13.434;2024-02-21T02:00:47;8.10;99.90
13589;DHT22;6865;52.552;13.434;2024-02-21T02:03:14;8.20;99.90
13589;DHT22;6865;52.552;13.434;2024-02-21T02:05:49;8.10;99.90
13589;DHT22;6865;52.552;13.434;2024-02-21T02:08:16;8.20;99.90
13589;DHT22;6865;52.552;13.434;2024-02-21T02:10:44;7.90;99.90
13589;DHT22;6865;52.552;13.434;2024-02-21T02:13:11;8.20;99.90
13589;DHT22;6865;52.552;13.434;2024-02-21T02:15:45;8.20;99.90
13589;DHT22;6865;52.552;13.434;2024-02-21T02:18:13;8.20;99.90
13589;DHT22;6865;52.552;13.434;2024-02-21T02:20:40;8.20;99.90
13589;DHT22;6865;52.552;13.434;2024-02-21T02:23:27;8.30;99.90
13589;DHT22;6865;52.552;13.434;2024-02-21T02:25:54;8.00;99.90
13589;DHT22;6865;52.552;13.434;2024-02-21T02:28:21;8.00;99.90
13589;DHT22;6865;52.552;13.434;2024-02-21T02:30:49;7.90;99.90
13589;DHT22;6865;52.552;13.434;2024-02-21T02:33:16;7.90;99.90
13589;DHT22;6865;52.552;13.434;2024-02-21T02:35:46;7.80;99.90
13589;DHT22;6865;52.552;13.434;2024-02-21T02:38:13;7.90;99.90
13589;DHT22;6865;52.552;13.434;2024-02-21T02:40:41;7.80;99.90
13589;DHT22;6865;52.552;13.434;2024-02-21T02:43:08;7.80;99.90
13589;DHT22;6865;52.552;13.434;2024-02-21T02:45:35;7.70;99.90
13589;DHT22;6865;52.552;13.434;2024-02-21T02:48:02;6.90;99.90
13589;DHT22;6865;52.552;13.434;2024-02-21T02:50:29;7.70;99.90
13589;DHT22;6865;52.552;13.434;2024-02-21T02:52:56;7.60;99.90
13589;DHT22;6865;52.552;13.434;2024-02-21T02:55:23;7.60;99.90
13589;DHT22;6865;52.552;13.434;2024-02-21T02:57:50;7.60;99.90
13589;DHT22;6865;52.552;13.434;2024-02-21T03:00:17;7.60;99.90
13589;DHT22;6865;52.552;13.434;2024-02-21T03:02:45;7.60;99.90
13589;DHT22;6865;52.552;13.434;2024-02-21T03:05:18;7.50;99.90
13589;DHT22;6865;52.552;13.434;2024-02-21T03:07:46;7.50;99.90
13589;DHT22;6865;52.552;13.434;2024-02-21T03:10:13;7.50;99.90
13589;DHT22;6865;52.552;13.434;2024-02-21T03:12:40;7.40;99.90
13589;DHT22;6865;52.552;13.434;2024-02-21T03:15:07;7.40;99.90
13589;DHT22;6865;52.552;13.434;2024-02-21T03:17:34;7.50;99.90
13589;DHT22;6865;52.552;13.434;2024-02-21T03:20:02;7.50;99.90
13589;DHT22;6865;52.552;13.434;2024-02-21T03:22:32;7.50;99.90
13589;DHT22;6865;52.552;13.434;2024-02-21T03:24:59;7.40;99.90
13589;DHT22;6865;52.552;13.434;2024-02-21T03:27:26;7.40;99.90
13589;DHT22;6865;52.552;13.434;2024-02-21T03:29:53;7.30;99.90
13589;DHT22;6865;52.552;13.434;2024-02-21T03:32:19;8.40;99.90
13589;DHT22;6865;52.552;13.434;2024-02-21T03:34:46;7.40;99.90
13589;DHT22;6865;52.552;13.434;2024-02-21T03:37:13;7.40;99.90
13589;DHT22;6865;52.552;13.434;2024-02-21T03:39:40;7.40;99.90
13589;DHT22;6865;52.552;13.434;2024-02-21T03:42:07;7.40;99.90
13589;DHT22;6865;52.552;13.434;2024-02-21T03:44:34;7.40;99.90
13589;DHT22;6865;52.552;13.434;2024-02-21T03:47:01;7.30;99.90
13589;DHT22;6865;52.552;13.434;2024-02-21T03:49:28;7.30;99.90
13589;DHT22;6865;52.552;13.434;2024-02-21T03:51:55;6.90;99.90
13589;DHT22;6865;52.552;13.434;2024-02-21T03:54:23;7.30;99.90
13589;DHT22;6865;52.552;13.434;2024-02-21T03:56:49;7.30;99.90
13589;DHT22;6865;52.552;13.434;2024-02-21T03:59:16;7.30;99.90
13589;DHT22;6865;52.552;13.434;2024-02-21T04:01:43;7.40;99.90
13589;DHT22;6865;52.552;13.434;2024-02-21T04:04:10;7.40;99.90
13589;DHT22;6865;52.552;13.434;2024-02-21T04:06:49;7.40;99.90
13589;DHT22;6865;52.552;13.434;2024-02-21T04:09:16;7.40;99.90
13589;DHT22;6865;52.552;13.434;2024-02-21T04:11:43;7.30;99.90
13589;DHT22;6865;52.552;13.434;2024-02-21T04:14:10;7.40;99.90
13589;DHT22;6865;52.552;13.434;2024-02-21T04:16:38;7.40;99.90
13589;DHT22;6865;52.552;13.434;2024-02-21T04:19:08;7.40;99.90
13589;DHT22;6865;52.552;13.434;2024-02-21T04:21:35;7.40;99.90
13589;DHT22;6865;52.552;13.434;2024-02-21T04:24:02;7.50;99.90
13589;DHT22;6865;52.552;13.434;2024-02-21T04:26:32;7.50;99.90
13589;DHT22;6865;52.552;13.434;2024-02-21T04:28:59;7.50;99.90
13589;DHT22;6865;52.552;13.434;2024-02-21T04:31:26;7.50;99.90
13589;DHT22;6865;52.552;13.434;2024-02-21T04:33:53;7.50;99.90
13589;DHT22;6865;52.552;13.434;2024-02-21T04:36:20;7.50;99.90
13589;DHT22;6865;52.552;13.434;2024-02-21T04:38:46;7.50;99.90
13589;DHT22;6865;52.552;13.434;2024-02-21T04:41:13;7.50;99.90
13589;DHT22;6865;52.552;13.434;2024-02-21T04:43:40;7.50;99.90
13589;DHT22;6865;52.552;13.434;2024-02-21T04:46:07;7.50;99.90
13589;DHT22;6865;52.552;13.434;2024-02-21T04:48:34;7.60;99.90
13589;DHT22;6865;52.552;13.434;2024-02-21T04:51:01;7.60;99.90
13589;DHT22;6865;52.552;13.434;2024-02-21T04:53:27;7.60;99.90
13589;DHT22;6865;52.552;13.434;2024-02-21T04:55:54;7.60;99.90
13589;DHT22;6865;52.552;13.434;2024-02-21T04:58:21;7.50;99.90
13589;DHT22;6865;52.552;13.434;2024-02-21T05:00:48;7.50;99.90
13589;DHT22;6865;52.552;13.434;2024-02-21T05:03:15;7.50;99.90
13589;DHT22;6865;52.552;13.434;2024-02-21T05:05:42;7.60;99.90
13589;DHT22;6865;52.552;13.434;2024-02-21T05:08:09;7.60;99.90
13589;DHT22;6865;52.552;13.434;2024-02-21T05:10:37;7.60;99.90
13589;DHT22;6865;52.552;13.434;2024-02-21T05:13:03;7.60;99.90
13589;DHT22;6865;52.552;13.434;2024-02-21T05:15:31;7.60;99.90
13589;DHT22;6865;52.552;13.434;2024-02-21T05:17:58;7.60;99.90
13589;DHT22;6865;52.552;13.434;2024-02-21T05:20:24;7.60;99.90
13589;DHT22;6865;52.552;13.434;2024-02-21T05:22:51;7.70;99.90
13589;DHT22;6865;52.552;13.434;2024-02-21T05:25:18;7.70;99.90
13589;DHT22;6865;52.552;13.434;2024-02-21T05:27:45;6.40;99.90
13589;DHT22;6865;52.552;13.434;2024-02-21T05:30:12;7.60;99.90
13589;DHT22;6865;52.552;13.434;2024-02-21T05:32:40;7.70;99.90
13589;DHT22;6865;52.552;13.434;2024-02-21T05:35:07;7.60;99.90
13589;DHT22;6865;52.552;13.434;2024-02-21T05:37:34;7.60;99.90
13589;DHT22;6865;52.552;13.434;2024-02-21T05:40:00;7.50;99.90
13589;DHT22;6865;52.552;13.434;2024-02-21T05:42:27;7.50;99.90
13589;DHT22;6865;52.552;13.434;2024-02-21T05:44:54;7.40;99.90
13589;DHT22;6865;52.552;13.434;2024-02-21T05:47:20;7.50;99.90
13589;DHT22;6865;52.552;13.434;2024-02-21T05:49:47;7.50;99.90
13589;DHT22;6865;52.552;13.434;2024-02-21T05:52:14;7.60;99.90
13589;DHT22;6865;52.552;13.434;2024-02-21T05:54:41;7.60;99.90
13589;DHT22;6865;52.552;13.434;2024-02-21T05:57:08;7.70;99.90
13589;DHT22;6865;52.552;13.434;2024-02-21T05:59:35;7.70;99.90
13589;DHT22;6865;52.552;13.434;2024-02-21T06:02:06;7.70;99.90
13589;DHT22;6865;52.552;13.434;2024-02-21T06:04:33;7.70;99.90
13589;DHT22;6865;52.552;13.434;2024-02-21T06:07:00;7.70;99.90
13589;DHT22;6865;52.552;13.434;2024-02-21T06:09:28;7.70;99.90
13589;DHT22;6865;52.552;13.434;2024-02-21T06:11:56;7.60;99.90
13589;DHT22;6865;52.552;13.434;2024-02-21T06:14:24;7.70;99.90
13589;DHT22;6865;52.552;13.434;2024-02-21T06:16:50;7.70;99.90
13589;DHT22;6865;52.552;13.434;2024-02-21T06:19:17;7.70;99.90
13589;DHT22;6865;52.552;13.434;2024-02-21T06:21:45;7.60;99.90
13589;DHT22;6865;52.552;13.434;2024-02-21T06:24:12;7.60;99.90
13589;DHT22;6865;52.552;13.434;2024-02-21T06:26:40;7.20;99.90
13589;DHT22;6865;52.552;13.434;2024-02-21T06:29:07;7.60;99.90
13589;DHT22;6865;52.552;13.434;2024-02-21T06:31:35;7.70;99.90
13589;DHT22;6865;52.552;13.434;2024-02-21T06:34:02;7.70;99.90
13589;DHT22;6865;52.552;13.434;2024-02-21T06:36:29;7.80;99.90
13589;DHT22;6865;52.552;13.434;2024-02-21T06:38:56;7.70;99.90
13589;DHT22;6865;52.552;13.434;2024-02-21T06:41:23;7.70;99.90
13589;DHT22;6865;52.552;13.434;2024-02-21T06:43:50;7.70;99.90
13589;DHT22;6865;52.552;13.434;2024-02-21T06:46:24;7.70;99.90
13589;DHT22;6865;52.552;13.434;2024-02-21T06:48:51;7.70;99.90
13589;DHT22;6865;52.552;13.434;2024-02-21T06:51:18;7.70;99.90
13589;DHT22;6865;52.552;13.434;2024-02-21T06:53:45;7.70;99.90
13589;DHT22;6865;52.552;13.434;2024-02-21T06:56:11;7.70;99.90
13589;DHT22;6865;52.552;13.434;2024-02-21T06:58:38;7.70;99.90
13589;DHT22;6865;52.552;13.434;2024-02-21T07:01:05;7.70;99.90
13589;DHT22;6865;52.552;13.434;2024-02-21T07:03:32;7.70;99.90
13589;DHT22;6865;52.552;13.434;2024-02-21T07:05:58;7.70;99.90
13589;DHT22;6865;52.552;13.434;2024-02-21T07:08:25;7.70;99.90
13589;DHT22;6865;52.552;13.434;2024-02-21T07:10:53;7.80;99.90
13589;DHT22;6865;52.552;13.434;2024-02-21T07:13:19;7.70;99.90
13589;DHT22;6865;52.552;13.434;2024-02-21T07:15:48;7.90;99.90
13589;DHT22;6865;52.552;13.434;2024-02-21T07:18:15;7.90;99.90
13589;DHT22;6865;52.552;13.434;2024-02-21T07:20:41;7.60;99.90
13589;DHT22;6865;52.552;13.434;2024-02-21T07:23:08;7.40;99.90
13589;DHT22;6865;52.552;13.434;2024-02-21T07:25:35;7.80;99.90
13589;DHT22;6865;52.552;13.434;2024-02-21T07:28:02;7.90;99.90
13589;DHT22;6865;52.552;13.434;2024-02-21T07:30:29;7.90;99.90
13589;DHT22;6865;52.552;13.434;2024-02-21T07:32:56;7.90;99.90
13589;DHT22;6865;52.552;13.434;2024-02-21T07:35:23;8.00;99.90
13589;DHT22;6865;52.552;13.434;2024-02-21T07:37:49;8.00;99.90
13589;DHT22;6865;52.552;13.434;2024-02-21T07:40:16;8.10;99.90
13589;DHT22;6865;52.552;13.434;2024-02-21T07:42:44;8.20;99.90
13589;DHT22;6865;52.552;13.434;2024-02-21T07:45:16;8.20;99.90
13589;DHT22;6865;52.552;13.434;2024-02-21T07:47:45;8.30;99.90
13589;DHT22;6865;52.552;13.434;2024-02-21T07:50:11;8.20;99.90
13589;DHT22;6865;52.552;13.434;2024-02-21T07:52:38;8.20;99.90
13589;DHT22;6865;52.552;13.434;2024-02-21T07:55:05;8.10;99.90
13589;DHT22;6865;52.552;13.434;2024-02-21T07:57:32;8.10;99.90
13589;DHT22;6865;52.552;13.434;2024-02-21T07:59:59;8.20;99.90
13589;DHT22;6865;52.552;13.434;2024-02-21T08:02:26;8.20;99.90
13589;DHT22;6865;52.552;13.434;2024-02-21T08:04:52;8.10;99.90
13589;DHT22;6865;52.552;13.434;2024-02-21T08:07:19;8.10;99.90
13589;DHT22;6865;52.552;13.434;2024-02-21T08:09:46;8.20;99.90
13589;DHT22;6865;52.552;13.434;2024-02-21T08:12:12;9.40;99.90
13589;DHT22;6865;52.552;13.434;2024-02-21T08:14:39;8.10;99.90
13589;DHT22;6865;52.552;13.434;2024-02-21T08:17:06;8.10;99.90
13589;DHT22;6865;52.552;13.434;2024-02-21T08:19:33;8.10;99.90
13589;DHT22;6865;52.552;13.434;2024-02-21T08:21:59;8.20;99.90
13589;DHT22;6865;52.552;13.434;2024-02-21T08:24:26;8.20;99.90
13589;DHT22;6865;52.552;13.434;2024-02-21T08:26:53;8.20;99.90
13589;DHT22;6865;52.552;13.434;2024-02-21T08:29:20;8.10;99.90
13589;DHT22;6865;52.552;13.434;2024-02-21T08:31:46;8.30;99.90
13589;DHT22;6865;52.552;13.434;2024-02-21T08:34:13;8.30;99.90
13589;DHT22;6865;52.552;13.434;2024-02-21T08:36:40;8.30;99.90
13589;DHT22;6865;52.552;13.434;2024-02-21T08:39:07;8.40;99.90
13589;DHT22;6865;52.552;13.434;2024-02-21T08:41:36;8.40;99.90
13589;DHT22;6865;52.552;13.434;2024-02-21T08:44:25;8.50;99.90
13589;DHT22;6865;52.552;13.434;2024-02-21T08:46:53;8.70;99.90
13589;DHT22;6865;52.552;13.434;2024-02-21T08:49:20;8.50;99.90
13589;DHT22;6865;52.552;13.434;2024-02-21T08:51:47;8.50;99.90
13589;DHT22;6865;52.552;13.434;2024-02-21T08:54:14;8.50;99.90
13589;DHT22;6865;52.552;13.434;2024-02-21T08:56:41;8.60;99.90
13589;DHT22;6865;52.552;13.434;2024-02-21T08:59:08;9.80;99.90
13589;DHT22;6865;52.552;13.434;2024-02-21T09:01:35;8.60;99.90
13589;DHT22;6865;52.552;13.434;2024-02-21T09:04:02;8.60;99.90
13589;DHT22;6865;52.552;13.434;2024-02-21T09:06:29;8.70;99.90
13589;DHT22;6865;52.552;13.434;2024-02-21T09:08:57;8.70;99.90
13589;DHT22;6865;52.552;13.434;2024-02-21T09:11:24;8.70;99.90
13589;DHT22;6865;52.552;13.434;2024-02-21T09:13:51;8.80;99.90
13589;DHT22;6865;52.552;13.434;2024-02-21T09:16:18;8.80;99.90
13589;DHT22;6865;52.552;13.434;2024-02-21T09:18:45;8.80;99.90
13589;DHT22;6865;52.552;13.434;2024-02-21T09:21:13;8.80;99.90
13589;DHT22;6865;52.552;13.434;2024-02-21T09:23:39;8.80;99.90
13589;DHT22;6865;52.552;13.434;2024-02-21T09:26:06;8.90;99.90
13589;DHT22;6865;52.552;13.434;2024-02-21T09:28:33;9.00;99.90
13589;DHT22;6865;52.552;13.434;2024-02-21T09:31:01;8.90;99.90
13589;DHT22;6865;52.552;13.434;2024-02-21T09:33:28;9.00;99.90
13589;DHT22;6865;52.552;13.434;2024-02-21T09:35:59;9.10;99.90
13589;DHT22;6865;52.552;13.434;2024-02-21T09:38:26;9.10;99.90
13589;DHT22;6865;52.552;13.434;2024-02-21T09:41:03;9.20;99.90
13589;DHT22;6865;52.552;13.434;2024-02-21T09:43:31;9.20;99.90
13589;DHT22;6865;52.552;13.434;2024-02-21T09:46:00;9.20;99.90
13589;DHT22;6865;52.552;13.434;2024-02-21T09:49:17;9.30;99.90
13589;DHT22;6865;52.552;13.434;2024-02-21T09:51:16;9.30;99.90
13589;DHT22;6865;52.552;13.434;2024-02-21T09:53:44;9.10;99.90
13589;DHT22;6865;52.552;13.434;2024-02-21T09:56:27;9.40;99.90
13589;DHT22;6865;52.552;13.434;2024-02-21T09:58:54;9.40;99.90
13589;DHT22;6865;52.552;13.434;2024-02-21T10:01:21;9.40;99.90
13589;DHT22;6865;52.552;13.434;2024-02-21T10:04:00;9.40;99.90
13589;DHT22;6865;52.552;13.434;2024-02-21T10:06:29;9.40;99.90
13589;DHT22;6865;52.552;13.434;2024-02-21T10:08:56;9.40;99.90
13589;DHT22;6865;52.552;13.434;2024-02-21T10:11:26;9.40;99.90
13589;DHT22;6865;52.552;13.434;2024-02-21T10:14:04;9.40;99.90
13589;DHT22;6865;52.552;13.434;2024-02-21T10:16:32;9.50;99.90
13589;DHT22;6865;52.552;13.434;2024-02-21T10:19:00;9.60;99.90
13589;DHT22;6865;52.552;13.434;2024-02-21T10:21:27;9.60;99.90
13589;DHT22;6865;52.552;13.434;2024-02-21T10:23:53;9.60;99.90
13589;DHT22;6865;52.552;13.434;2024-02-21T10:26:21;9.70;99.90
13589;DHT22;6865;52.552;13.434;2024-02-21T10:28:47;9.70;99.90
13589;DHT22;6865;52.552;13.434;2024-02-21T10:31:22;9.70;99.90
13589;DHT22;6865;52.552;13.434;2024-02-21T10:33:57;9.70;99.90
13589;DHT22;6865;52.552;13.434;2024-02-21T10:36:25;9.60;99.90
13589;DHT22;6865;52.552;13.434;2024-02-21T10:38:53;9.70;99.90
13589;DHT22;6865;52.552;13.434;2024-02-21T10:41:22;9.70;99.90
13589;DHT22;6865;52.552;13.434;2024-02-21T10:43:53;9.80;99.90
13589;DHT22;6865;52.552;13.434;2024-02-21T10:46:23;9.90;99.90
13589;DHT22;6865;52.552;13.434;2024-02-21T10:49:12;9.80;99.90
13589;DHT22;6865;52.552;13.434;2024-02-21T10:51:44;9.90;99.90
13589;DHT22;6865;52.552;13.434;2024-02-21T10:54:39;9.80;99.90
13589;DHT22;6865;52.552;13.434;2024-02-21T10:57:07;9.70;99.90
13589;DHT22;6865;52.552;13.434;2024-02-21T10:59:37;9.70;99.90
13589;DHT22;6865;52.552;13.434;2024-02-21T11:02:04;9.60;99.90
13589;DHT22;6865;52.552;13.434;2024-02-21T11:04:33;9.70;99.90
13589;DHT22;6865;52.552;13.434;2024-02-21T11:07:04;9.70;99.90
13589;DHT22;6865;52.552;13.434;2024-02-21T11:09:37;9.60;99.90
13589;DHT22;6865;52.552;13.434;2024-02-21T11:12:07;9.50;99.90
13589;DHT22;6865;52.552;13.434;2024-02-21T11:14:34;9.40;99.90
13589;DHT22;6865;52.552;13.434;2024-02-21T11:17:19;9.40;99.90
13589;DHT22;6865;52.552;13.434;2024-02-21T11:19:48;9.50;99.90
13589;DHT22;6865;52.552;13.434;2024-02-21T11:22:19;9.70;99.90
13589;DHT22;6865;52.552;13.434;2024-02-21T11:24:46;9.70;99.90
13589;DHT22;6865;52.552;13.434;2024-02-21T11:27:19;10.00;99.90
13589;DHT22;6865;52.552;13.434;2024-02-21T11:29:48;10.00;99.90
13589;DHT22;6865;52.552;13.434;2024-02-21T11:32:19;10.10;99.90
13589;DHT22;6865;52.552;13.434;2024-02-21T11:35:00;10.10;99.90
13589;DHT22;6865;52.552;13.434;2024-02-21T11:37:35;10.20;99.90
13589;DHT22;6865;52.552;13.434;2024-02-21T11:40:05;10.30;99.90
13589;DHT22;6865;52.552;13.434;2024-02-21T11:42:37;10.40;99.90
13589;DHT22;6865;52.552;13.434;2024-02-21T11:45:06;10.40;99.90
13589;DHT22;6865;52.552;13.434;2024-02-21T11:47:33;10.40;99.90
13589;DHT22;6865;52.552;13.434;2024-02-21T11:50:00;10.50;99.90
13589;DHT22;6865;52.552;13.434;2024-02-21T11:52:27;10.50;99.90
13589;DHT22;6865;52.552;13.434;2024-02-21T11:54:55;10.60;99.90
13589;DHT22;6865;52.552;13.434;2024-02-21T11:57:24;10.80;99.90
13589;DHT22;6865;52.552;13.434;2024-02-21T11:59:51;10.80;99.90
13589;DHT22;6865;52.552;13.434;2024-02-21T12:02:26;10.90;99.90
13589;DHT22;6865;52.552;13.434;2024-02-21T12:04:53;10.90;99.90
13589;DHT22;6865;52.552;13.434;2024-02-21T12:07:21;10.80;99.90
13589;DHT22;6865;52.552;13.434;2024-02-21T12:09:50;10.70;99.90
13589;DHT22;6865;52.552;13.434;2024-02-21T12:12:19;10.70;99.90
13589;DHT22;6865;52.552;13.434;2024-02-21T12:14:46;10.70;99.90
13589;DHT22;6865;52.552;13.434;2024-02-21T12:17:13;10.70;99.90
13589;DHT22;6865;52.552;13.434;2024-02-21T12:19:40;10.80;99.90
13589;DHT22;6865;52.552;13.434;2024-02-21T12:22:07;10.90;99.90
13589;DHT22;6865;52.552;13.434;2024-02-21T12:24:35;10.90;99.90
13589;DHT22;6865;52.552;13.434;2024-02-21T12:27:02;11.00;99.90
13589;DHT22;6865;52.552;13.434;2024-02-21T12:29:30;11.00;99.90
13589;DHT22;6865;52.552;13.434;2024-02-21T12:31:57;11.00;99.90
13589;DHT22;6865;52.552;13.434;2024-02-21T12:34:24;11.10;99.90
13589;DHT22;6865;52.552;13.434;2024-02-21T12:36:54;11.00;99.90
13589;DHT22;6865;52.552;13.434;2024-02-21T12:39:20;11.00;99.90
13589;DHT22;6865;52.552;13.434;2024-02-21T12:41:47;11.10;99.90
13589;DHT22;6865;52.552;13.434;2024-02-21T12:44:15;11.20;99.90
13589;DHT22;6865;52.552;13.434;2024-02-21T12:46:43;11.30;99.90
13589;DHT22;6865;52.552;13.434;2024-02-21T12:49:10;11.40;99.90
13589;DHT22;6865;52.552;13.434;2024-02-21T12:51:37;11.40;99.90
13589;DHT22;6865;52.552;13.434;2024-02-21T12:54:04;11.50;99.90
13589;DHT22;6865;52.552;13.434;2024-02-21T12:56:31;11.70;99.90
13589;DHT22;6865;52.552;13.434;2024-02-21T12:58:58;11.60;99.90
13589;DHT22;6865;52.552;13.434;2024-02-21T13:01:25;11.50;99.90
13589;DHT22;6865;52.552;13.434;2024-02-21T13:03:52;11.50;99.90
13589;DHT22;6865;52.552;13.434;2024-02-21T13:06:20;11.50;99.90
13589;DHT22;6865;52.552;13.434;2024-02-21T13:08:47;11.40;99.90
13589;DHT22;6865;52.552;13.434;2024-02-21T13:11:14;11.50;99.90
13589;DHT22;6865;52.552;13.434;2024-02-21T13:13:41;11.50;99.90
13589;DHT22;6865;52.552;13.434;2024-02-21T13:16:08;11.40;99.90
13589;DHT22;6865;52.552;13.434;2024-02-21T13:18:36;11.40;99.90
13589;DHT22;6865;52.552;13.434;2024-02-21T13:21:09;11.40;99.90
13589;DHT22;6865;52.552;13.434;2024-02-21T13:23:36;11.20;99.90
13589;DHT22;6865;52.552;13.434;2024-02-21T13:26:02;11.30;99.90
13589;DHT22;6865;52.552;13.434;2024-02-21T13:28:29;11.30;99.90
13589;DHT22;6865;52.552;13.434;2024-02-21T13:30:56;11.30;99.90
13589;DHT22;6865;52.552;13.434;2024-02-21T13:33:24;11.40;99.90
13589;DHT22;6865;52.552;13.434;2024-02-21T13:35:50;11.50;99.90
13589;DHT22;6865;52.552;13.434;2024-02-21T13:38:17;11.50;99.90
13589;DHT22;6865;52.552;13.434;2024-02-21T13:40:45;11.60;99.90
13589;DHT22;6865;52.552;13.434;2024-02-21T13:43:12;11.40;99.90
13589;DHT22;6865;52.552;13.434;2024-02-21T13:45:39;11.40;99.90
13589;DHT22;6865;52.552;13.434;2024-02-21T13:48:08;11.30;99.90
13589;DHT22;6865;52.552;13.434;2024-02-21T13:50:37;11.40;99.90
13589;DHT22;6865;52.552;13.434;2024-02-21T13:53:09;11.00;99.90
13589;DHT22;6865;52.552;13.434;2024-02-21T13:55:36;11.50;99.90
13589;DHT22;6865;52.552;13.434;2024-02-21T13:58:03;11.20;97.80
13589;DHT22;6865;52.552;13.434;2024-02-21T14:00:30;11.50;93.90
13589;DHT22;6865;52.552;13.434;2024-02-21T14:02:59;11.40;83.40
13589;DHT22;6865;52.552;13.434;2024-02-21T14:05:27;11.40;85.70
13589;DHT22;6865;52.552;13.434;2024-02-21T14:07:54;11.20;95.40
13589;DHT22;6865;52.552;13.434;2024-02-21T14:10:21;11.20;94.00
13589;DHT22;6865;52.552;13.434;2024-02-21T14:12:48;11.20;95.60
13589;DHT22;6865;52.552;13.434;2024-02-21T14:15:15;11.10;93.40
13589;DHT22;6865;52.552;13.434;2024-02-21T14:17:43;11.10;97.10
13589;DHT22;6865;52.552;13.434;2024-02-21T14:20:10;11.20;80.70
13589;DHT22;6865;52.552;13.434;2024-02-21T14:22:41;11.10;79.50
13589;DHT22;6865;52.552;13.434;2024-02-21T14:25:08;11.10;69.40
13589;DHT22;6865;52.552;13.434;2024-02-21T14:27:35;11.20;69.60
13589;DHT22;6865;52.552;13.434;2024-02-21T14:30:05;11.20;14.70
13589;DHT22;6865;52.552;13.434;2024-02-21T14:32:32;11.30;1.00
13589;DHT22;6865;52.552;13.434;2024-02-21T14:34:59;11.40;1.00
13589;DHT22;6865;52.552;13.434;2024-02-21T14:37:31;11.20;1.00
13589;DHT22;6865;52.552;13.434;2024-02-21T14:39:58;11.20;1.00
13589;DHT22;6865;52.552;13.434;2024-02-21T14:42:27;11.30;1.00
13589;DHT22;6865;52.552;13.434;2024-02-21T14:44:54;11.30;1.00
13589;DHT22;6865;52.552;13.434;2024-02-21T14:47:31;11.30;1.00
13589;DHT22;6865;52.552;13.434;2024-02-21T14:49:58;11.30;1.00
13589;DHT22;6865;52.552;13.434;2024-02-21T14:52:24;11.40;1.00
13589;DHT22;6865;52.552;13.434;2024-02-21T14:54:51;11.30;1.00
13589;DHT22;6865;52.552;13.434;2024-02-21T14:57:18;11.40;1.00
13589;DHT22;6865;52.552;13.434;2024-02-21T14:59:47;11.40;1.00
13589;DHT22;6865;52.552;13.434;2024-02-21T15:02:16;11.50;1.00
13589;DHT22;6865;52.552;13.434;2024-02-21T15:04:43;11.40;1.00
13589;DHT22;6865;52.552;13.434;2024-02-21T15:07:09;11.30;1.00
13589;DHT22;6865;52.552;13.434;2024-02-21T15:09:36;11.50;1.00
13589;DHT22;6865;52.552;13.434;2024-02-21T15:12:03;11.50;1.00
13589;DHT22;6865;52.552;13.434;2024-02-21T15:14:30;11.40;1.00
13589;DHT22;6865;52.552;13.434;2024-02-21T15:16:56;11.40;1.00
13589;DHT22;6865;52.552;13.434;2024-02-21T15:19:23;11.40;1.00
13589;DHT22;6865;52.552;13.434;2024-02-21T15:21:50;11.30;1.00
13589;DHT22;6865;52.552;13.434;2024-02-21T15:24:17;11.40;1.00
13589;DHT22;6865;52.552;13.434;2024-02-21T15:26:44;11.40;1.00
13589;DHT22;6865;52.552;13.434;2024-02-21T15:29:10;11.40;1.00
13589;DHT22;6865;52.552;13.434;2024-02-21T15:31:37;11.30;1.00
13589;DHT22;6865;52.552;13.434;2024-02-21T15:34:04;11.30;1.00
13589;DHT22;6865;52.552;13.434;2024-02-21T15:36:31;11.40;1.00
13589;DHT22;6865;52.552;13.434;2024-02-21T15:38:57;11.20;1.00
13589;DHT22;6865;52.552;13.434;2024-02-21T15:41:26;11.20;1.00
13589;DHT22;6865;52.552;13.434;2024-02-21T15:43:52;11.00;1.00
13589;DHT22;6865;52.552;13.434;2024-02-21T15:46:20;10.90;1.00